sensor_id;sensor_type;location;lat;lon;timestamp;P1;durP1;ratioP1;P2;durP2;ratioP2
21769;SDS011;11046;49.558;8.674;2023-03-20T00:02:41;15.50;;;10.37;;
21769;SDS011;11046;49.558;8.674;2023-03-20T00:05:42;16.27;;;9.93;;
21769;SDS011;11046;49.558;8.674;2023-03-20T00:08:43;16.07;;;9.57;;
21769;SDS011;11046;49.558;8.674;2023-03-20T00:11:49;14.17;;;9.80;;
21769;SDS011;11046;49.558;8.674;2023-03-20T00:14:52;15.13;;;10.03;;
21769;SDS011;11046;49.558;8.674;2023-03-20T00:17:53;17.10;;;10.00;;
21769;SDS011;11046;49.558;8.674;2023-03-20T00:20:53;12.83;;;9.03;;
21769;SDS011;11046;49.558;8.674;2023-03-20T00:23:54;14.63;;;8.80;;
21769;SDS011;11046;49.558;8.674;2023-03-20T00:26:55;13.77;;;8.07;;
21769;SDS011;11046;49.558;8.674;2023-03-20T00:29:56;13.00;;;8.37;;
21769;SDS011;11046;49.558;8.674;2023-03-20T00:32:57;12.87;;;8.33;;
21769;SDS011;11046;49.558;8.674;2023-03-20T00:35:58;12.80;;;8.20;;
21769;SDS011;11046;49.558;8.674;2023-03-20T00:38:59;13.53;;;7.67;;
21769;SDS011;11046;49.558;8.674;2023-03-20T00:42:02;11.17;;;7.43;;
21769;SDS011;11046;49.558;8.674;2023-03-20T00:45:09;11.47;;;7.00;;
21769;SDS011;11046;49.558;8.674;2023-03-20T00:48:14;10.17;;;7.03;;
21769;SDS011;11046;49.558;8.674;2023-03-20T00:51:16;10.67;;;6.47;;
21769;SDS011;11046;49.558;8.674;2023-03-20T00:54:16;8.60;;;6.30;;
21769;SDS011;11046;49.558;8.674;2023-03-20T00:57:21;9.30;;;6.07;;
21769;SDS011;11046;49.558;8.674;2023-03-20T01:03:39;8.90;;;5.50;;
21769;SDS011;11046;49.558;8.674;2023-03-20T01:06:41;7.67;;;5.57;;
21769;SDS011;11046;49.558;8.674;2023-03-20T01:09:42;7.40;;;5.10;;
21769;SDS011;11046;49.558;8.674;2023-03-20T01:12:43;7.33;;;4.80;;
21769;SDS011;11046;49.558;8.674;2023-03-20T01:15:45;6.60;;;4.70;;
21769;SDS011;11046;49.558;8.674;2023-03-20T01:18:47;6.83;;;4.70;;
21769;SDS011;11046;49.558;8.674;2023-03-20T01:21:48;5.47;;;4.30;;
21769;SDS011;11046;49.558;8.674;2023-03-20T01:24:49;7.13;;;4.70;;
21769;SDS011;11046;49.558;8.674;2023-03-20T01:27:51;6.57;;;4.53;;
21769;SDS011;11046;49.558;8.674;2023-03-20T01:30:53;5.53;;;3.90;;
21769;SDS011;11046;49.558;8.674;2023-03-20T01:33:54;5.07;;;3.90;;
21769;SDS011;11046;49.558;8.674;2023-03-20T01:36:56;6.33;;;4.10;;
21769;SDS011;11046;49.558;8.674;2023-03-20T01:39:58;7.97;;;3.80;;
21769;SDS011;11046;49.558;8.674;2023-03-20T01:43:00;7.40;;;3.90;;
21769;SDS011;11046;49.558;8.674;2023-03-20T01:46:19;7.10;;;4.27;;
21769;SDS011;11046;49.558;8.674;2023-03-20T01:53:17;7.90;;;4.07;;
21769;SDS011;11046;49.558;8.674;2023-03-20T01:56:28;5.60;;;3.80;;
21769;SDS011;11046;49.558;8.674;2023-03-20T01:59:35;5.33;;;3.97;;
21769;SDS011;11046;49.558;8.674;2023-03-20T02:02:40;4.23;;;3.50;;
21769;SDS011;11046;49.558;8.674;2023-03-20T02:05:44;5.23;;;3.70;;
21769;SDS011;11046;49.558;8.674;2023-03-20T02:08:46;7.13;;;4.90;;
21769;SDS011;11046;49.558;8.674;2023-03-20T02:11:50;5.93;;;4.50;;
21769;SDS011;11046;49.558;8.674;2023-03-20T02:14:53;9.40;;;4.77;;
21769;SDS011;11046;49.558;8.674;2023-03-20T02:18:15;11.53;;;7.20;;
21769;SDS011;11046;49.558;8.674;2023-03-20T02:27:58;9.83;;;6.80;;
21769;SDS011;11046;49.558;8.674;2023-03-20T02:34:24;11.27;;;6.67;;
21769;SDS011;11046;49.558;8.674;2023-03-20T02:37:48;12.87;;;7.00;;
21769;SDS011;11046;49.558;8.674;2023-03-20T02:41:05;12.77;;;7.77;;
21769;SDS011;11046;49.558;8.674;2023-03-20T02:44:22;11.20;;;6.47;;
21769;SDS011;11046;49.558;8.674;2023-03-20T02:48:00;10.37;;;5.40;;
21769;SDS011;11046;49.558;8.674;2023-03-20T02:51:40;11.47;;;6.10;;
21769;SDS011;11046;49.558;8.674;2023-03-20T02:55:15;8.23;;;5.13;;
21769;SDS011;11046;49.558;8.674;2023-03-20T03:01:40;8.07;;;5.00;;
21769;SDS011;11046;49.558;8.674;2023-03-20T03:04:47;7.77;;;4.90;;
21769;SDS011;11046;49.558;8.674;2023-03-20T03:07:52;6.20;;;4.43;;
21769;SDS011;11046;49.558;8.674;2023-03-20T03:11:05;6.47;;;4.10;;
21769;SDS011;11046;49.558;8.674;2023-03-20T03:14:08;5.50;;;3.97;;
21769;SDS011;11046;49.558;8.674;2023-03-20T03:17:16;5.97;;;4.30;;
21769;SDS011;11046;49.558;8.674;2023-03-20T03:20:26;9.97;;;4.47;;
21769;SDS011;11046;49.558;8.674;2023-03-20T03:23:39;6.27;;;4.60;;
21769;SDS011;11046;49.558;8.674;2023-03-20T03:26:43;6.40;;;4.43;;
21769;SDS011;11046;49.558;8.674;2023-03-20T03:29:46;6.83;;;4.80;;
21769;SDS011;11046;49.558;8.674;2023-03-20T03:32:56;7.47;;;4.67;;
21769;SDS011;11046;49.558;8.674;2023-03-20T03:42:51;9.57;;;5.40;;
21769;SDS011;11046;49.558;8.674;2023-03-20T03:45:58;8.03;;;5.30;;
21769;SDS011;11046;49.558;8.674;2023-03-20T03:49:03;9.10;;;5.30;;
21769;SDS011;11046;49.558;8.674;2023-03-20T03:52:11;8.20;;;5.23;;
21769;SDS011;11046;49.558;8.674;2023-03-20T03:55:23;8.07;;;5.67;;
21769;SDS011;11046;49.558;8.674;2023-03-20T03:58:41;9.03;;;5.77;;
21769;SDS011;11046;49.558;8.674;2023-03-20T04:01:44;10.07;;;6.27;;
21769;SDS011;11046;49.558;8.674;2023-03-20T04:04:46;8.23;;;5.33;;
21769;SDS011;11046;49.558;8.674;2023-03-20T04:07:52;10.33;;;5.90;;
21769;SDS011;11046;49.558;8.674;2023-03-20T04:10:54;8.90;;;5.80;;
21769;SDS011;11046;49.558;8.674;2023-03-20T04:13:54;9.27;;;5.80;;
21769;SDS011;11046;49.558;8.674;2023-03-20T04:16:55;10.53;;;6.37;;
21769;SDS011;11046;49.558;8.674;2023-03-20T04:19:56;9.37;;;6.07;;
21769;SDS011;11046;49.558;8.674;2023-03-20T04:22:58;10.23;;;6.00;;
21769;SDS011;11046;49.558;8.674;2023-03-20T04:26:00;10.97;;;6.67;;
21769;SDS011;11046;49.558;8.674;2023-03-20T04:29:02;12.40;;;6.87;;
21769;SDS011;11046;49.558;8.674;2023-03-20T04:32:22;11.77;;;6.77;;
21769;SDS011;11046;49.558;8.674;2023-03-20T04:35:48;12.73;;;7.10;;
21769;SDS011;11046;49.558;8.674;2023-03-20T04:38:50;13.30;;;6.83;;
21769;SDS011;11046;49.558;8.674;2023-03-20T04:41:50;9.33;;;6.40;;
21769;SDS011;11046;49.558;8.674;2023-03-20T04:44:51;10.03;;;5.93;;
21769;SDS011;11046;49.558;8.674;2023-03-20T04:47:52;10.53;;;6.33;;
21769;SDS011;11046;49.558;8.674;2023-03-20T04:50:55;13.20;;;7.47;;
21769;SDS011;11046;49.558;8.674;2023-03-20T04:54:02;13.57;;;7.30;;
21769;SDS011;11046;49.558;8.674;2023-03-20T04:57:04;12.77;;;6.90;;
21769;SDS011;11046;49.558;8.674;2023-03-20T05:00:05;15.27;;;8.03;;
21769;SDS011;11046;49.558;8.674;2023-03-20T05:03:06;11.93;;;7.40;;
21769;SDS011;11046;49.558;8.674;2023-03-20T05:06:07;11.10;;;7.17;;
21769;SDS011;11046;49.558;8.674;2023-03-20T05:09:09;11.20;;;6.93;;
21769;SDS011;11046;49.558;8.674;2023-03-20T05:12:11;12.87;;;7.03;;
21769;SDS011;11046;49.558;8.674;2023-03-20T05:15:20;16.43;;;8.33;;
21769;SDS011;11046;49.558;8.674;2023-03-20T05:18:38;16.07;;;8.73;;
21769;SDS011;11046;49.558;8.674;2023-03-20T05:21:59;16.37;;;7.90;;
21769;SDS011;11046;49.558;8.674;2023-03-20T05:25:24;13.67;;;7.50;;
21769;SDS011;11046;49.558;8.674;2023-03-20T05:28:50;13.63;;;7.73;;
21769;SDS011;11046;49.558;8.674;2023-03-20T05:32:11;14.67;;;8.03;;
21769;SDS011;11046;49.558;8.674;2023-03-20T05:35:20;13.03;;;7.90;;
21769;SDS011;11046;49.558;8.674;2023-03-20T05:38:41;15.13;;;8.33;;
21769;SDS011;11046;49.558;8.674;2023-03-20T05:42:00;15.00;;;8.80;;
21769;SDS011;11046;49.558;8.674;2023-03-20T05:45:12;15.37;;;8.43;;
21769;SDS011;11046;49.558;8.674;2023-03-20T05:48:21;17.30;;;8.87;;
21769;SDS011;11046;49.558;8.674;2023-03-20T05:51:41;19.27;;;9.53;;
21769;SDS011;11046;49.558;8.674;2023-03-20T05:54:56;15.73;;;8.50;;
21769;SDS011;11046;49.558;8.674;2023-03-20T05:58:07;17.13;;;9.10;;
21769;SDS011;11046;49.558;8.674;2023-03-20T06:01:32;20.53;;;8.70;;
21769;SDS011;11046;49.558;8.674;2023-03-20T06:04:41;16.47;;;9.10;;
21769;SDS011;11046;49.558;8.674;2023-03-20T06:07:52;19.63;;;9.03;;
21769;SDS011;11046;49.558;8.674;2023-03-20T06:10:53;16.60;;;9.80;;
21769;SDS011;11046;49.558;8.674;2023-03-20T06:13:53;14.87;;;9.07;;
21769;SDS011;11046;49.558;8.674;2023-03-20T06:16:56;15.47;;;9.37;;
21769;SDS011;11046;49.558;8.674;2023-03-20T06:19:57;19.47;;;9.63;;
21769;SDS011;11046;49.558;8.674;2023-03-20T06:22:57;18.00;;;10.40;;
21769;SDS011;11046;49.558;8.674;2023-03-20T06:25:58;18.70;;;10.93;;
21769;SDS011;11046;49.558;8.674;2023-03-20T06:29:00;17.10;;;10.17;;
21769;SDS011;11046;49.558;8.674;2023-03-20T06:32:01;17.43;;;9.53;;
21769;SDS011;11046;49.558;8.674;2023-03-20T06:35:03;15.07;;;9.50;;
21769;SDS011;11046;49.558;8.674;2023-03-20T06:38:06;17.73;;;9.83;;
21769;SDS011;11046;49.558;8.674;2023-03-20T06:41:06;17.57;;;9.83;;
21769;SDS011;11046;49.558;8.674;2023-03-20T06:44:08;17.90;;;9.60;;
21769;SDS011;11046;49.558;8.674;2023-03-20T06:47:47;16.80;;;9.70;;
21769;SDS011;11046;49.558;8.674;2023-03-20T06:50:48;15.67;;;9.37;;
21769;SDS011;11046;49.558;8.674;2023-03-20T06:53:52;15.67;;;10.13;;
21769;SDS011;11046;49.558;8.674;2023-03-20T06:56:56;19.60;;;9.40;;
21769;SDS011;11046;49.558;8.674;2023-03-20T06:59:56;16.47;;;9.97;;
21769;SDS011;11046;49.558;8.674;2023-03-20T07:02:57;16.97;;;10.90;;
21769;SDS011;11046;49.558;8.674;2023-03-20T07:05:58;17.77;;;11.10;;
21769;SDS011;11046;49.558;8.674;2023-03-20T07:08:59;18.17;;;10.63;;
21769;SDS011;11046;49.558;8.674;2023-03-20T07:12:00;17.07;;;10.63;;
21769;SDS011;11046;49.558;8.674;2023-03-20T07:15:04;18.57;;;10.67;;
21769;SDS011;11046;49.558;8.674;2023-03-20T07:18:06;15.10;;;10.07;;
21769;SDS011;11046;49.558;8.674;2023-03-20T07:21:07;17.57;;;10.10;;
21769;SDS011;11046;49.558;8.674;2023-03-20T07:24:08;18.77;;;10.53;;
21769;SDS011;11046;49.558;8.674;2023-03-20T07:27:09;19.00;;;11.10;;
21769;SDS011;11046;49.558;8.674;2023-03-20T07:30:10;18.60;;;11.50;;
21769;SDS011;11046;49.558;8.674;2023-03-20T07:33:12;17.70;;;10.67;;
21769;SDS011;11046;49.558;8.674;2023-03-20T07:36:13;17.33;;;10.90;;
21769;SDS011;11046;49.558;8.674;2023-03-20T07:39:14;18.27;;;10.80;;
21769;SDS011;11046;49.558;8.674;2023-03-20T07:42:22;18.50;;;10.33;;
21769;SDS011;11046;49.558;8.674;2023-03-20T07:45:31;22.30;;;11.43;;
21769;SDS011;11046;49.558;8.674;2023-03-20T07:48:32;19.17;;;11.93;;
21769;SDS011;11046;49.558;8.674;2023-03-20T07:51:33;20.83;;;12.40;;
21769;SDS011;11046;49.558;8.674;2023-03-20T07:54:34;20.40;;;12.37;;
21769;SDS011;11046;49.558;8.674;2023-03-20T07:57:35;20.07;;;12.20;;
21769;SDS011;11046;49.558;8.674;2023-03-20T08:00:41;20.33;;;12.90;;
21769;SDS011;11046;49.558;8.674;2023-03-20T08:03:42;20.93;;;12.53;;
21769;SDS011;11046;49.558;8.674;2023-03-20T08:06:43;21.63;;;12.27;;
21769;SDS011;11046;49.558;8.674;2023-03-20T08:09:44;20.23;;;12.80;;
21769;SDS011;11046;49.558;8.674;2023-03-20T08:12:45;26.83;;;12.77;;
21769;SDS011;11046;49.558;8.674;2023-03-20T08:15:48;21.40;;;12.47;;
21769;SDS011;11046;49.558;8.674;2023-03-20T08:18:48;19.30;;;11.87;;
21769;SDS011;11046;49.558;8.674;2023-03-20T08:21:49;23.50;;;12.70;;
21769;SDS011;11046;49.558;8.674;2023-03-20T08:24:51;22.00;;;13.33;;
21769;SDS011;11046;49.558;8.674;2023-03-20T08:27:51;24.30;;;13.67;;
21769;SDS011;11046;49.558;8.674;2023-03-20T08:30:52;23.37;;;13.47;;
21769;SDS011;11046;49.558;8.674;2023-03-20T08:33:53;23.57;;;12.83;;
21769;SDS011;11046;49.558;8.674;2023-03-20T08:36:54;23.03;;;13.03;;
21769;SDS011;11046;49.558;8.674;2023-03-20T08:39:55;23.27;;;13.23;;
21769;SDS011;11046;49.558;8.674;2023-03-20T08:42:55;24.90;;;13.27;;
21769;SDS011;11046;49.558;8.674;2023-03-20T08:45:56;26.20;;;13.10;;
21769;SDS011;11046;49.558;8.674;2023-03-20T08:49:00;26.23;;;13.73;;
21769;SDS011;11046;49.558;8.674;2023-03-20T08:52:01;23.43;;;13.07;;
21769;SDS011;11046;49.558;8.674;2023-03-20T08:55:01;22.37;;;11.80;;
21769;SDS011;11046;49.558;8.674;2023-03-20T08:58:02;24.20;;;13.57;;
21769;SDS011;11046;49.558;8.674;2023-03-20T09:01:06;21.73;;;12.27;;
21769;SDS011;11046;49.558;8.674;2023-03-20T09:04:12;21.07;;;12.40;;
21769;SDS011;11046;49.558;8.674;2023-03-20T09:07:13;26.13;;;14.17;;
21769;SDS011;11046;49.558;8.674;2023-03-20T09:10:15;27.83;;;13.83;;
21769;SDS011;11046;49.558;8.674;2023-03-20T09:13:15;22.97;;;13.13;;
21769;SDS011;11046;49.558;8.674;2023-03-20T09:16:16;25.37;;;12.80;;
21769;SDS011;11046;49.558;8.674;2023-03-20T09:19:17;25.07;;;13.07;;
21769;SDS011;11046;49.558;8.674;2023-03-20T09:22:18;23.73;;;11.97;;
21769;SDS011;11046;49.558;8.674;2023-03-20T09:25:19;25.23;;;12.23;;
21769;SDS011;11046;49.558;8.674;2023-03-20T09:28:20;27.43;;;13.03;;
21769;SDS011;11046;49.558;8.674;2023-03-20T09:31:20;30.03;;;12.77;;
21769;SDS011;11046;49.558;8.674;2023-03-20T09:34:22;25.90;;;12.10;;
21769;SDS011;11046;49.558;8.674;2023-03-20T09:37:23;25.67;;;12.33;;
21769;SDS011;11046;49.558;8.674;2023-03-20T09:53:39;26.97;;;12.50;;
21769;SDS011;11046;49.558;8.674;2023-03-20T09:56:45;28.53;;;13.47;;
21769;SDS011;11046;49.558;8.674;2023-03-20T09:59:45;27.93;;;14.20;;
21769;SDS011;11046;49.558;8.674;2023-03-20T10:02:49;28.43;;;13.17;;
21769;SDS011;11046;49.558;8.674;2023-03-20T10:05:59;27.33;;;12.03;;
21769;SDS011;11046;49.558;8.674;2023-03-20T10:09:22;29.23;;;13.37;;
21769;SDS011;11046;49.558;8.674;2023-03-20T10:12:28;24.20;;;12.00;;
21769;SDS011;11046;49.558;8.674;2023-03-20T10:15:46;26.50;;;12.23;;
21769;SDS011;11046;49.558;8.674;2023-03-20T10:19:05;26.50;;;12.00;;
21769;SDS011;11046;49.558;8.674;2023-03-20T10:28:51;27.03;;;12.20;;
21769;SDS011;11046;49.558;8.674;2023-03-20T10:41:53;26.77;;;12.17;;
21769;SDS011;11046;49.558;8.674;2023-03-20T10:45:05;29.77;;;12.03;;
21769;SDS011;11046;49.558;8.674;2023-03-20T10:48:14;33.93;;;12.97;;
21769;SDS011;11046;49.558;8.674;2023-03-20T10:51:39;25.90;;;11.97;;
21769;SDS011;11046;49.558;8.674;2023-03-20T10:54:49;24.80;;;11.90;;
21769;SDS011;11046;49.558;8.674;2023-03-20T10:57:59;25.87;;;12.70;;
21769;SDS011;11046;49.558;8.674;2023-03-20T11:01:13;22.23;;;11.70;;
21769;SDS011;11046;49.558;8.674;2023-03-20T11:04:16;23.43;;;12.00;;
21769;SDS011;11046;49.558;8.674;2023-03-20T11:10:25;22.23;;;12.13;;
21769;SDS011;11046;49.558;8.674;2023-03-20T11:13:35;24.75;;;11.63;;
21769;SDS011;11046;49.558;8.674;2023-03-20T11:16:50;24.07;;;12.40;;
21769;SDS011;11046;49.558;8.674;2023-03-20T11:19:52;21.60;;;10.17;;
21769;SDS011;11046;49.558;8.674;2023-03-20T11:23:00;19.73;;;10.83;;
21769;SDS011;11046;49.558;8.674;2023-03-20T11:26:10;23.40;;;10.13;;
21769;SDS011;11046;49.558;8.674;2023-03-20T11:29:29;21.20;;;10.43;;
21769;SDS011;11046;49.558;8.674;2023-03-20T11:32:41;18.07;;;9.30;;
21769;SDS011;11046;49.558;8.674;2023-03-20T11:35:46;19.60;;;9.33;;
21769;SDS011;11046;49.558;8.674;2023-03-20T11:38:52;18.80;;;10.10;;
21769;SDS011;11046;49.558;8.674;2023-03-20T11:41:57;19.23;;;9.93;;
21769;SDS011;11046;49.558;8.674;2023-03-20T11:45:34;19.83;;;9.77;;
21769;SDS011;11046;49.558;8.674;2023-03-20T11:48:37;17.83;;;9.67;;
21769;SDS011;11046;49.558;8.674;2023-03-20T11:51:39;17.05;;;8.82;;
21769;SDS011;11046;49.558;8.674;2023-03-20T11:54:46;14.65;;;8.18;;
21769;SDS011;11046;49.558;8.674;2023-03-20T11:58:13;15.88;;;8.45;;
21769;SDS011;11046;49.558;8.674;2023-03-20T12:01:16;15.15;;;8.43;;
21769;SDS011;11046;49.558;8.674;2023-03-20T12:04:24;16.25;;;8.85;;
21769;SDS011;11046;49.558;8.674;2023-03-20T12:07:33;16.40;;;9.20;;
21769;SDS011;11046;49.558;8.674;2023-03-20T12:10:39;13.52;;;8.60;;
21769;SDS011;11046;49.558;8.674;2023-03-20T12:13:42;16.92;;;8.57;;
21769;SDS011;11046;49.558;8.674;2023-03-20T12:16:48;14.38;;;8.52;;
21769;SDS011;11046;49.558;8.674;2023-03-20T12:19:55;13.85;;;8.48;;
21769;SDS011;11046;49.558;8.674;2023-03-20T12:23:08;17.13;;;7.82;;
21769;SDS011;11046;49.558;8.674;2023-03-20T12:26:14;12.43;;;7.47;;
21769;SDS011;11046;49.558;8.674;2023-03-20T12:29:26;13.20;;;7.57;;
21769;SDS011;11046;49.558;8.674;2023-03-20T12:35:39;12.88;;;8.18;;
21769;SDS011;11046;49.558;8.674;2023-03-20T12:38:45;13.48;;;7.68;;
21769;SDS011;11046;49.558;8.674;2023-03-20T12:42:02;14.85;;;7.80;;
21769;SDS011;11046;49.558;8.674;2023-03-20T12:45:19;14.38;;;7.13;;
21769;SDS011;11046;49.558;8.674;2023-03-20T12:58:45;11.27;;;6.40;;
21769;SDS011;11046;49.558;8.674;2023-03-20T13:02:17;10.52;;;6.25;;
21769;SDS011;11046;49.558;8.674;2023-03-20T13:12:44;8.23;;;5.03;;
21769;SDS011;11046;49.558;8.674;2023-03-20T13:19:35;9.00;;;4.60;;
21769;SDS011;11046;49.558;8.674;2023-03-20T13:26:20;10.82;;;5.10;;
21769;SDS011;11046;49.558;8.674;2023-03-20T13:39:48;10.65;;;4.85;;
21769;SDS011;11046;49.558;8.674;2023-03-20T13:43:22;10.15;;;4.53;;
21769;SDS011;11046;49.558;8.674;2023-03-20T13:56:47;6.25;;;3.28;;
21769;SDS011;11046;49.558;8.674;2023-03-20T13:59:50;6.20;;;3.47;;
21769;SDS011;11046;49.558;8.674;2023-03-20T14:09:34;5.68;;;2.92;;
21769;SDS011;11046;49.558;8.674;2023-03-20T14:12:36;5.22;;;3.25;;
21769;SDS011;11046;49.558;8.674;2023-03-20T14:15:37;5.20;;;2.92;;
21769;SDS011;11046;49.558;8.674;2023-03-20T14:19:04;7.72;;;3.72;;
21769;SDS011;11046;49.558;8.674;2023-03-20T14:22:17;5.78;;;3.70;;
21769;SDS011;11046;49.558;8.674;2023-03-20T14:25:41;6.50;;;4.63;;
21769;SDS011;11046;49.558;8.674;2023-03-20T14:28:57;7.68;;;4.18;;
21769;SDS011;11046;49.558;8.674;2023-03-20T14:32:21;9.60;;;5.07;;
21769;SDS011;11046;49.558;8.674;2023-03-20T14:35:30;9.50;;;3.50;;
21769;SDS011;11046;49.558;8.674;2023-03-20T14:38:56;6.35;;;3.15;;
21769;SDS011;11046;49.558;8.674;2023-03-20T14:48:43;6.75;;;3.22;;
21769;SDS011;11046;49.558;8.674;2023-03-20T14:51:49;4.10;;;2.78;;
21769;SDS011;11046;49.558;8.674;2023-03-20T14:55:12;3.38;;;2.10;;
21769;SDS011;11046;49.558;8.674;2023-03-20T14:58:37;8.45;;;2.92;;
21769;SDS011;11046;49.558;8.674;2023-03-20T15:01:45;4.80;;;2.50;;
21769;SDS011;11046;49.558;8.674;2023-03-20T15:04:52;5.57;;;2.40;;
21769;SDS011;11046;49.558;8.674;2023-03-20T15:08:03;5.18;;;2.53;;
21769;SDS011;11046;49.558;8.674;2023-03-20T15:11:12;8.15;;;2.50;;
21769;SDS011;11046;49.558;8.674;2023-03-20T15:14:21;3.63;;;1.98;;
21769;SDS011;11046;49.558;8.674;2023-03-20T15:17:43;3.97;;;2.20;;
21769;SDS011;11046;49.558;8.674;2023-03-20T15:20:46;3.22;;;2.33;;
21769;SDS011;11046;49.558;8.674;2023-03-20T15:23:51;3.60;;;2.45;;
21769;SDS011;11046;49.558;8.674;2023-03-20T15:27:01;3.00;;;2.10;;
21769;SDS011;11046;49.558;8.674;2023-03-20T15:30:03;4.60;;;1.75;;
21769;SDS011;11046;49.558;8.674;2023-03-20T15:33:15;4.55;;;2.05;;
21769;SDS011;11046;49.558;8.674;2023-03-20T15:36:20;4.65;;;2.30;;
21769;SDS011;11046;49.558;8.674;2023-03-20T15:39:29;4.88;;;2.00;;
21769;SDS011;11046;49.558;8.674;2023-03-20T15:42:50;4.40;;;2.08;;
21769;SDS011;11046;49.558;8.674;2023-03-20T15:45:57;5.22;;;2.70;;
21769;SDS011;11046;49.558;8.674;2023-03-20T15:48:58;6.07;;;2.38;;
21769;SDS011;11046;49.558;8.674;2023-03-20T15:52:00;6.93;;;2.60;;
21769;SDS011;11046;49.558;8.674;2023-03-20T15:55:13;6.55;;;2.50;;
21769;SDS011;11046;49.558;8.674;2023-03-20T15:58:18;5.18;;;2.28;;
21769;SDS011;11046;49.558;8.674;2023-03-20T16:01:20;5.78;;;2.20;;
21769;SDS011;11046;49.558;8.674;2023-03-20T16:04:22;5.40;;;2.33;;
21769;SDS011;11046;49.558;8.674;2023-03-20T16:07:26;4.78;;;2.00;;
21769;SDS011;11046;49.558;8.674;2023-03-20T16:10:32;4.75;;;2.08;;
21769;SDS011;11046;49.558;8.674;2023-03-20T16:13:36;5.88;;;2.22;;
21769;SDS011;11046;49.558;8.674;2023-03-20T16:16:40;5.30;;;2.03;;
21769;SDS011;11046;49.558;8.674;2023-03-20T16:19:42;3.85;;;1.80;;
21769;SDS011;11046;49.558;8.674;2023-03-20T16:22:44;6.60;;;2.00;;
21769;SDS011;11046;49.558;8.674;2023-03-20T16:25:45;5.03;;;2.22;;
21769;SDS011;11046;49.558;8.674;2023-03-20T16:28:57;4.72;;;2.55;;
21769;SDS011;11046;49.558;8.674;2023-03-20T16:32:06;4.40;;;2.17;;
21769;SDS011;11046;49.558;8.674;2023-03-20T16:35:21;6.15;;;2.00;;
21769;SDS011;11046;49.558;8.674;2023-03-20T16:38:33;4.28;;;2.00;;
21769;SDS011;11046;49.558;8.674;2023-03-20T16:41:39;5.32;;;2.40;;
21769;SDS011;11046;49.558;8.674;2023-03-20T16:44:40;5.13;;;2.40;;
21769;SDS011;11046;49.558;8.674;2023-03-20T16:47:41;9.38;;;3.63;;
21769;SDS011;11046;49.558;8.674;2023-03-20T16:50:45;12.00;;;5.18;;
21769;SDS011;11046;49.558;8.674;2023-03-20T16:53:56;11.13;;;4.60;;
21769;SDS011;11046;49.558;8.674;2023-03-20T16:57:00;9.85;;;3.40;;
21769;SDS011;11046;49.558;8.674;2023-03-20T17:00:16;8.30;;;3.33;;
21769;SDS011;11046;49.558;8.674;2023-03-20T17:03:24;7.47;;;3.28;;
21769;SDS011;11046;49.558;8.674;2023-03-20T17:06:29;6.40;;;2.22;;
21769;SDS011;11046;49.558;8.674;2023-03-20T17:09:36;6.00;;;3.00;;
21769;SDS011;11046;49.558;8.674;2023-03-20T17:12:50;3.72;;;2.50;;
21769;SDS011;11046;49.558;8.674;2023-03-20T17:15:51;4.43;;;2.17;;
21769;SDS011;11046;49.558;8.674;2023-03-20T17:19:00;6.53;;;2.28;;
21769;SDS011;11046;49.558;8.674;2023-03-20T17:22:01;5.32;;;2.50;;
21769;SDS011;11046;49.558;8.674;2023-03-20T17:25:07;3.13;;;2.10;;
21769;SDS011;11046;49.558;8.674;2023-03-20T17:28:41;5.70;;;2.25;;
21769;SDS011;11046;49.558;8.674;2023-03-20T17:31:36;5.10;;;3.60;;
21769;SDS011;11046;49.558;8.674;2023-03-20T17:34:37;4.27;;;2.17;;
21769;SDS011;11046;49.558;8.674;2023-03-20T17:37:38;4.22;;;2.25;;
21769;SDS011;11046;49.558;8.674;2023-03-20T17:40:40;5.53;;;2.33;;
21769;SDS011;11046;49.558;8.674;2023-03-20T17:43:40;3.22;;;2.13;;
21769;SDS011;11046;49.558;8.674;2023-03-20T17:46:42;7.60;;;2.58;;
21769;SDS011;11046;49.558;8.674;2023-03-20T17:49:43;6.88;;;2.60;;
21769;SDS011;11046;49.558;8.674;2023-03-20T17:52:44;6.18;;;2.60;;
21769;SDS011;11046;49.558;8.674;2023-03-20T17:55:45;8.80;;;2.93;;
21769;SDS011;11046;49.558;8.674;2023-03-20T17:58:45;10.23;;;6.30;;
21769;SDS011;11046;49.558;8.674;2023-03-20T18:01:46;7.30;;;4.00;;
21769;SDS011;11046;49.558;8.674;2023-03-20T18:04:47;6.73;;;2.80;;
21769;SDS011;11046;49.558;8.674;2023-03-20T18:07:48;8.67;;;2.60;;
21769;SDS011;11046;49.558;8.674;2023-03-20T18:10:49;6.97;;;2.67;;
21769;SDS011;11046;49.558;8.674;2023-03-20T18:13:51;7.43;;;2.97;;
21769;SDS011;11046;49.558;8.674;2023-03-20T18:16:51;6.43;;;3.30;;
21769;SDS011;11046;49.558;8.674;2023-03-20T18:19:52;5.10;;;3.20;;
21769;SDS011;11046;49.558;8.674;2023-03-20T18:22:52;6.03;;;3.27;;
21769;SDS011;11046;49.558;8.674;2023-03-20T18:25:53;6.40;;;3.10;;
21769;SDS011;11046;49.558;8.674;2023-03-20T18:28:53;7.40;;;3.70;;
21769;SDS011;11046;49.558;8.674;2023-03-20T18:31:55;9.20;;;5.00;;
21769;SDS011;11046;49.558;8.674;2023-03-20T18:34:55;9.53;;;5.13;;
21769;SDS011;11046;49.558;8.674;2023-03-20T18:37:56;10.00;;;5.00;;
21769;SDS011;11046;49.558;8.674;2023-03-20T18:40:57;9.47;;;4.53;;
21769;SDS011;11046;49.558;8.674;2023-03-20T18:44:00;9.33;;;4.00;;
21769;SDS011;11046;49.558;8.674;2023-03-20T18:47:00;9.17;;;5.37;;
21769;SDS011;11046;49.558;8.674;2023-03-20T18:50:01;11.50;;;6.10;;
21769;SDS011;11046;49.558;8.674;2023-03-20T18:53:02;15.80;;;5.50;;
21769;SDS011;11046;49.558;8.674;2023-03-20T18:56:05;9.37;;;4.83;;
21769;SDS011;11046;49.558;8.674;2023-03-20T18:59:22;8.60;;;4.67;;
21769;SDS011;11046;49.558;8.674;2023-03-20T19:02:22;9.10;;;4.70;;
21769;SDS011;11046;49.558;8.674;2023-03-20T19:05:24;10.50;;;3.97;;
21769;SDS011;11046;49.558;8.674;2023-03-20T19:08:26;12.73;;;4.23;;
21769;SDS011;11046;49.558;8.674;2023-03-20T19:11:26;7.63;;;3.67;;
21769;SDS011;11046;49.558;8.674;2023-03-20T19:14:27;7.33;;;3.50;;
21769;SDS011;11046;49.558;8.674;2023-03-20T19:17:27;9.23;;;3.40;;
21769;SDS011;11046;49.558;8.674;2023-03-20T19:20:38;8.13;;;3.50;;
21769;SDS011;11046;49.558;8.674;2023-03-20T19:23:40;8.57;;;3.60;;
21769;SDS011;11046;49.558;8.674;2023-03-20T19:26:41;5.07;;;2.90;;
21769;SDS011;11046;49.558;8.674;2023-03-20T19:29:41;9.03;;;2.87;;
21769;SDS011;11046;49.558;8.674;2023-03-20T19:32:42;6.63;;;2.80;;
21769;SDS011;11046;49.558;8.674;2023-03-20T19:35:43;4.80;;;2.90;;
21769;SDS011;11046;49.558;8.674;2023-03-20T19:38:43;9.33;;;2.70;;
21769;SDS011;11046;49.558;8.674;2023-03-20T19:41:44;5.97;;;2.67;;
21769;SDS011;11046;49.558;8.674;2023-03-20T19:44:45;6.90;;;2.87;;
21769;SDS011;11046;49.558;8.674;2023-03-20T19:47:45;9.77;;;3.00;;
21769;SDS011;11046;49.558;8.674;2023-03-20T19:50:47;6.57;;;3.27;;
21769;SDS011;11046;49.558;8.674;2023-03-20T19:53:49;5.50;;;2.60;;
21769;SDS011;11046;49.558;8.674;2023-03-20T19:56:50;7.17;;;2.63;;
21769;SDS011;11046;49.558;8.674;2023-03-20T19:59:50;5.33;;;2.43;;
21769;SDS011;11046;49.558;8.674;2023-03-20T20:02:51;7.80;;;2.63;;
21769;SDS011;11046;49.558;8.674;2023-03-20T20:05:51;8.03;;;2.70;;
21769;SDS011;11046;49.558;8.674;2023-03-20T20:08:52;6.70;;;2.57;;
21769;SDS011;11046;49.558;8.674;2023-03-20T20:11:53;6.07;;;2.60;;
21769;SDS011;11046;49.558;8.674;2023-03-20T20:14:54;68.43;;;24.33;;
21769;SDS011;11046;49.558;8.674;2023-03-20T20:17:57;53.80;;;22.67;;
21769;SDS011;11046;49.558;8.674;2023-03-20T20:21:00;33.50;;;14.60;;
21769;SDS011;11046;49.558;8.674;2023-03-20T20:24:03;25.13;;;10.40;;
21769;SDS011;11046;49.558;8.674;2023-03-20T20:27:06;12.33;;;4.57;;
21769;SDS011;11046;49.558;8.674;2023-03-20T20:30:10;9.23;;;4.90;;
21769;SDS011;11046;49.558;8.674;2023-03-20T20:33:17;8.47;;;3.97;;